Marietta, Georgia
Current Conditions -  °F | °C
As of 10:58 AM on Thursday 30 Oct 2014 (Local Time) from KMGE Reporting Station
Few Clouds Few Clouds  
Wind Chill: 58°   Ceiling: Unl
Heat Index: 58°   Visibility: 10mi
Dew Point: 41°   Wind: 5mph
Humidity: 52%   Direction: 340°NNW
Pressure: 30.1"   Gusts: NA
Location:  33.95°N, 84.54°W
Report Text: KMGE 301458Z 34004KT 10SM FEW030 15/05 A3010 RMK AO2A SLP192 T01470049 50008 $
Loading
Personal Weather Stations






























Interactive Weather Map
Tropical Storm Tracking
New forecast layout! Learn more

10-Day Weather Forecast

Advertisements
Track Severe Weather on mobile